sensor_id;sensor_type;location;lat;lon;timestamp;P1;durP1;ratioP1;P2;durP2;ratioP2
4317;SDS011;2172;53.576;9.934;2022-11-20T00:01:36;6.37;;;4.87;;
4317;SDS011;2172;53.576;9.934;2022-11-20T00:04:03;7.90;;;5.10;;
4317;SDS011;2172;53.576;9.934;2022-11-20T00:06:31;6.03;;;4.53;;
4317;SDS011;2172;53.576;9.934;2022-11-20T00:08:59;6.33;;;4.67;;
4317;SDS011;2172;53.576;9.934;2022-11-20T00:11:29;6.83;;;5.03;;
4317;SDS011;2172;53.576;9.934;2022-11-20T00:13:58;9.00;;;5.77;;
4317;SDS011;2172;53.576;9.934;2022-11-20T00:16:28;7.03;;;4.87;;
4317;SDS011;2172;53.576;9.934;2022-11-20T00:18:56;7.80;;;6.37;;
4317;SDS011;2172;53.576;9.934;2022-11-20T00:21:24;6.20;;;5.33;;
4317;SDS011;2172;53.576;9.934;2022-11-20T00:23:52;10.40;;;5.83;;
4317;SDS011;2172;53.576;9.934;2022-11-20T00:26:20;7.27;;;5.43;;
4317;SDS011;2172;53.576;9.934;2022-11-20T00:28:49;8.20;;;5.77;;
4317;SDS011;2172;53.576;9.934;2022-11-20T00:31:17;11.17;;;6.80;;
4317;SDS011;2172;53.576;9.934;2022-11-20T00:33:46;8.63;;;6.37;;
4317;SDS011;2172;53.576;9.934;2022-11-20T00:36:14;9.83;;;5.93;;
4317;SDS011;2172;53.576;9.934;2022-11-20T00:38:41;7.43;;;5.63;;
4317;SDS011;2172;53.576;9.934;2022-11-20T00:41:10;9.43;;;6.20;;
4317;SDS011;2172;53.576;9.934;2022-11-20T00:43:37;9.47;;;6.07;;
4317;SDS011;2172;53.576;9.934;2022-11-20T00:46:05;7.60;;;5.90;;
4317;SDS011;2172;53.576;9.934;2022-11-20T00:48:33;6.90;;;5.13;;
4317;SDS011;2172;53.576;9.934;2022-11-20T00:51:02;8.10;;;6.03;;
4317;SDS011;2172;53.576;9.934;2022-11-20T00:53:29;7.67;;;5.23;;
4317;SDS011;2172;53.576;9.934;2022-11-20T00:55:57;7.10;;;5.63;;
4317;SDS011;2172;53.576;9.934;2022-11-20T00:58:28;7.37;;;5.20;;
4317;SDS011;2172;53.576;9.934;2022-11-20T01:00:59;6.53;;;5.10;;
4317;SDS011;2172;53.576;9.934;2022-11-20T01:03:27;8.10;;;5.20;;
4317;SDS011;2172;53.576;9.934;2022-11-20T01:05:54;7.60;;;5.60;;
4317;SDS011;2172;53.576;9.934;2022-11-20T01:08:29;7.57;;;5.33;;
4317;SDS011;2172;53.576;9.934;2022-11-20T01:11:00;6.90;;;5.20;;
4317;SDS011;2172;53.576;9.934;2022-11-20T01:13:28;9.23;;;6.27;;
4317;SDS011;2172;53.576;9.934;2022-11-20T01:16:06;8.33;;;5.20;;
4317;SDS011;2172;53.576;9.934;2022-11-20T01:18:34;7.20;;;6.17;;
4317;SDS011;2172;53.576;9.934;2022-11-20T01:21:02;10.10;;;5.97;;
4317;SDS011;2172;53.576;9.934;2022-11-20T01:23:32;10.97;;;7.50;;
4317;SDS011;2172;53.576;9.934;2022-11-20T01:26:00;6.50;;;5.73;;
4317;SDS011;2172;53.576;9.934;2022-11-20T01:28:28;8.50;;;6.70;;
4317;SDS011;2172;53.576;9.934;2022-11-20T01:30:55;9.73;;;5.83;;
4317;SDS011;2172;53.576;9.934;2022-11-20T01:33:23;9.00;;;5.30;;
4317;SDS011;2172;53.576;9.934;2022-11-20T01:35:51;7.63;;;5.60;;
4317;SDS011;2172;53.576;9.934;2022-11-20T01:38:18;7.97;;;5.60;;
4317;SDS011;2172;53.576;9.934;2022-11-20T01:40:55;8.90;;;6.50;;
4317;SDS011;2172;53.576;9.934;2022-11-20T01:43:22;7.97;;;6.23;;
4317;SDS011;2172;53.576;9.934;2022-11-20T01:46:08;8.10;;;5.70;;
4317;SDS011;2172;53.576;9.934;2022-11-20T01:48:41;10.63;;;5.00;;
4317;SDS011;2172;53.576;9.934;2022-11-20T01:51:12;8.03;;;5.60;;
4317;SDS011;2172;53.576;9.934;2022-11-20T01:53:40;7.17;;;5.77;;
4317;SDS011;2172;53.576;9.934;2022-11-20T01:56:09;8.87;;;6.17;;
4317;SDS011;2172;53.576;9.934;2022-11-20T01:58:39;5.83;;;5.23;;
4317;SDS011;2172;53.576;9.934;2022-11-20T02:01:09;7.40;;;5.93;;
4317;SDS011;2172;53.576;9.934;2022-11-20T02:03:36;7.10;;;5.37;;
4317;SDS011;2172;53.576;9.934;2022-11-20T02:06:05;8.10;;;6.37;;
4317;SDS011;2172;53.576;9.934;2022-11-20T02:08:34;7.43;;;6.33;;
4317;SDS011;2172;53.576;9.934;2022-11-20T02:11:02;7.40;;;6.00;;
4317;SDS011;2172;53.576;9.934;2022-11-20T02:13:31;7.43;;;5.93;;
4317;SDS011;2172;53.576;9.934;2022-11-20T02:16:14;7.30;;;6.20;;
4317;SDS011;2172;53.576;9.934;2022-11-20T02:18:42;6.77;;;5.93;;
4317;SDS011;2172;53.576;9.934;2022-11-20T02:21:12;8.10;;;6.53;;
4317;SDS011;2172;53.576;9.934;2022-11-20T02:23:50;7.80;;;6.60;;
4317;SDS011;2172;53.576;9.934;2022-11-20T02:26:18;12.10;;;6.47;;
4317;SDS011;2172;53.576;9.934;2022-11-20T02:28:46;10.90;;;6.67;;
4317;SDS011;2172;53.576;9.934;2022-11-20T02:31:13;8.80;;;6.73;;
4317;SDS011;2172;53.576;9.934;2022-11-20T02:33:41;9.03;;;7.07;;
4317;SDS011;2172;53.576;9.934;2022-11-20T02:36:09;7.87;;;5.30;;
4317;SDS011;2172;53.576;9.934;2022-11-20T02:38:38;7.23;;;6.40;;
4317;SDS011;2172;53.576;9.934;2022-11-20T02:41:07;9.57;;;6.63;;
4317;SDS011;2172;53.576;9.934;2022-11-20T02:43:34;7.10;;;6.40;;
4317;SDS011;2172;53.576;9.934;2022-11-20T02:46:01;10.77;;;7.80;;
4317;SDS011;2172;53.576;9.934;2022-11-20T02:48:29;8.83;;;7.20;;
4317;SDS011;2172;53.576;9.934;2022-11-20T02:50:57;7.97;;;6.87;;
4317;SDS011;2172;53.576;9.934;2022-11-20T02:53:24;10.40;;;6.47;;
4317;SDS011;2172;53.576;9.934;2022-11-20T02:55:51;9.60;;;7.07;;
4317;SDS011;2172;53.576;9.934;2022-11-20T02:58:20;8.00;;;6.00;;
4317;SDS011;2172;53.576;9.934;2022-11-20T03:00:47;7.00;;;6.23;;
4317;SDS011;2172;53.576;9.934;2022-11-20T03:03:14;9.73;;;7.30;;
4317;SDS011;2172;53.576;9.934;2022-11-20T03:05:42;7.90;;;5.83;;
4317;SDS011;2172;53.576;9.934;2022-11-20T03:08:09;8.80;;;6.97;;
4317;SDS011;2172;53.576;9.934;2022-11-20T03:10:36;8.13;;;6.30;;
4317;SDS011;2172;53.576;9.934;2022-11-20T03:13:04;10.23;;;6.80;;
4317;SDS011;2172;53.576;9.934;2022-11-20T03:15:32;9.20;;;6.40;;
4317;SDS011;2172;53.576;9.934;2022-11-20T03:18:00;5.83;;;5.33;;
4317;SDS011;2172;53.576;9.934;2022-11-20T03:20:27;7.20;;;5.93;;
4317;SDS011;2172;53.576;9.934;2022-11-20T03:22:54;7.00;;;6.03;;
4317;SDS011;2172;53.576;9.934;2022-11-20T03:25:21;10.73;;;7.10;;
4317;SDS011;2172;53.576;9.934;2022-11-20T03:27:49;9.20;;;6.27;;
4317;SDS011;2172;53.576;9.934;2022-11-20T03:30:16;6.77;;;5.77;;
4317;SDS011;2172;53.576;9.934;2022-11-20T03:32:45;8.30;;;6.57;;
4317;SDS011;2172;53.576;9.934;2022-11-20T03:35:12;8.27;;;6.63;;
4317;SDS011;2172;53.576;9.934;2022-11-20T03:37:39;7.23;;;6.53;;
4317;SDS011;2172;53.576;9.934;2022-11-20T03:40:07;6.97;;;6.27;;
4317;SDS011;2172;53.576;9.934;2022-11-20T03:42:35;6.67;;;5.97;;
4317;SDS011;2172;53.576;9.934;2022-11-20T03:45:11;11.70;;;7.60;;
4317;SDS011;2172;53.576;9.934;2022-11-20T03:47:39;6.77;;;6.07;;
4317;SDS011;2172;53.576;9.934;2022-11-20T03:50:08;7.70;;;6.53;;
4317;SDS011;2172;53.576;9.934;2022-11-20T03:52:37;8.67;;;6.17;;
4317;SDS011;2172;53.576;9.934;2022-11-20T03:55:05;6.70;;;5.87;;
4317;SDS011;2172;53.576;9.934;2022-11-20T03:57:32;8.10;;;6.40;;
4317;SDS011;2172;53.576;9.934;2022-11-20T04:00:00;8.17;;;6.57;;
4317;SDS011;2172;53.576;9.934;2022-11-20T04:02:29;10.83;;;6.60;;
4317;SDS011;2172;53.576;9.934;2022-11-20T04:04:56;8.10;;;6.57;;
4317;SDS011;2172;53.576;9.934;2022-11-20T04:07:25;8.47;;;6.57;;
4317;SDS011;2172;53.576;9.934;2022-11-20T04:09:52;9.30;;;6.50;;
4317;SDS011;2172;53.576;9.934;2022-11-20T04:12:20;6.97;;;5.73;;
4317;SDS011;2172;53.576;9.934;2022-11-20T04:14:47;8.50;;;6.87;;
4317;SDS011;2172;53.576;9.934;2022-11-20T04:17:14;7.83;;;6.73;;
4317;SDS011;2172;53.576;9.934;2022-11-20T04:19:42;9.70;;;7.30;;
4317;SDS011;2172;53.576;9.934;2022-11-20T04:22:09;9.27;;;6.47;;
4317;SDS011;2172;53.576;9.934;2022-11-20T04:24:38;7.27;;;6.57;;
4317;SDS011;2172;53.576;9.934;2022-11-20T04:27:06;7.47;;;6.43;;
4317;SDS011;2172;53.576;9.934;2022-11-20T04:29:33;8.13;;;6.53;;
4317;SDS011;2172;53.576;9.934;2022-11-20T04:32:00;8.20;;;6.57;;
4317;SDS011;2172;53.576;9.934;2022-11-20T04:34:28;7.93;;;6.00;;
4317;SDS011;2172;53.576;9.934;2022-11-20T04:36:55;8.03;;;7.17;;
4317;SDS011;2172;53.576;9.934;2022-11-20T04:39:22;7.60;;;6.80;;
4317;SDS011;2172;53.576;9.934;2022-11-20T04:41:51;7.83;;;6.40;;
4317;SDS011;2172;53.576;9.934;2022-11-20T04:44:38;6.90;;;6.20;;
4317;SDS011;2172;53.576;9.934;2022-11-20T04:47:05;10.33;;;6.53;;
4317;SDS011;2172;53.576;9.934;2022-11-20T04:49:33;12.53;;;6.53;;
4317;SDS011;2172;53.576;9.934;2022-11-20T04:52:00;10.60;;;7.10;;
4317;SDS011;2172;53.576;9.934;2022-11-20T04:54:27;8.10;;;6.37;;
4317;SDS011;2172;53.576;9.934;2022-11-20T04:56:56;9.40;;;7.07;;
4317;SDS011;2172;53.576;9.934;2022-11-20T04:59:23;7.57;;;6.80;;
4317;SDS011;2172;53.576;9.934;2022-11-20T05:01:50;7.80;;;6.00;;
4317;SDS011;2172;53.576;9.934;2022-11-20T05:04:18;8.63;;;6.70;;
4317;SDS011;2172;53.576;9.934;2022-11-20T05:06:45;6.73;;;6.03;;
4317;SDS011;2172;53.576;9.934;2022-11-20T05:09:13;10.33;;;7.10;;
4317;SDS011;2172;53.576;9.934;2022-11-20T05:11:40;8.40;;;6.83;;
4317;SDS011;2172;53.576;9.934;2022-11-20T05:14:09;9.50;;;7.80;;
4317;SDS011;2172;53.576;9.934;2022-11-20T05:16:36;8.03;;;6.40;;
4317;SDS011;2172;53.576;9.934;2022-11-20T05:19:03;7.33;;;6.63;;
4317;SDS011;2172;53.576;9.934;2022-11-20T05:21:30;7.07;;;6.37;;
4317;SDS011;2172;53.576;9.934;2022-11-20T05:23:58;8.17;;;6.50;;
4317;SDS011;2172;53.576;9.934;2022-11-20T05:26:25;10.47;;;7.67;;
4317;SDS011;2172;53.576;9.934;2022-11-20T05:28:53;9.00;;;7.43;;
4317;SDS011;2172;53.576;9.934;2022-11-20T05:31:22;8.50;;;6.80;;
4317;SDS011;2172;53.576;9.934;2022-11-20T05:33:50;7.70;;;6.80;;
4317;SDS011;2172;53.576;9.934;2022-11-20T05:36:17;8.60;;;6.83;;
4317;SDS011;2172;53.576;9.934;2022-11-20T05:38:45;10.27;;;7.43;;
4317;SDS011;2172;53.576;9.934;2022-11-20T05:41:12;8.90;;;8.00;;
4317;SDS011;2172;53.576;9.934;2022-11-20T05:43:41;7.90;;;6.83;;
4317;SDS011;2172;53.576;9.934;2022-11-20T05:46:09;8.20;;;6.43;;
4317;SDS011;2172;53.576;9.934;2022-11-20T05:48:38;12.83;;;7.00;;
4317;SDS011;2172;53.576;9.934;2022-11-20T05:51:07;7.13;;;6.43;;
4317;SDS011;2172;53.576;9.934;2022-11-20T05:53:35;11.93;;;7.03;;
4317;SDS011;2172;53.576;9.934;2022-11-20T05:56:03;8.67;;;7.53;;
4317;SDS011;2172;53.576;9.934;2022-11-20T05:58:31;7.40;;;6.57;;
4317;SDS011;2172;53.576;9.934;2022-11-20T06:01:03;9.20;;;6.90;;
4317;SDS011;2172;53.576;9.934;2022-11-20T06:03:30;9.77;;;7.83;;
4317;SDS011;2172;53.576;9.934;2022-11-20T06:05:59;10.93;;;8.63;;
4317;SDS011;2172;53.576;9.934;2022-11-20T06:08:27;11.30;;;9.33;;
4317;SDS011;2172;53.576;9.934;2022-11-20T06:10:54;14.00;;;9.50;;
4317;SDS011;2172;53.576;9.934;2022-11-20T06:13:22;14.37;;;9.70;;
4317;SDS011;2172;53.576;9.934;2022-11-20T06:15:49;13.80;;;10.70;;
4317;SDS011;2172;53.576;9.934;2022-11-20T06:18:17;14.30;;;9.80;;
4317;SDS011;2172;53.576;9.934;2022-11-20T06:20:44;13.33;;;9.80;;
4317;SDS011;2172;53.576;9.934;2022-11-20T06:23:13;13.13;;;11.13;;
4317;SDS011;2172;53.576;9.934;2022-11-20T06:25:41;13.13;;;9.83;;
4317;SDS011;2172;53.576;9.934;2022-11-20T06:28:08;12.90;;;9.97;;
4317;SDS011;2172;53.576;9.934;2022-11-20T06:30:36;13.93;;;9.33;;
4317;SDS011;2172;53.576;9.934;2022-11-20T06:33:03;9.87;;;8.50;;
4317;SDS011;2172;53.576;9.934;2022-11-20T06:35:30;12.10;;;8.77;;
4317;SDS011;2172;53.576;9.934;2022-11-20T06:37:58;13.80;;;8.40;;
4317;SDS011;2172;53.576;9.934;2022-11-20T06:40:26;11.47;;;8.30;;
4317;SDS011;2172;53.576;9.934;2022-11-20T06:42:54;15.10;;;9.80;;
4317;SDS011;2172;53.576;9.934;2022-11-20T06:45:21;14.83;;;11.30;;
4317;SDS011;2172;53.576;9.934;2022-11-20T06:47:48;15.20;;;11.50;;
4317;SDS011;2172;53.576;9.934;2022-11-20T06:50:16;17.57;;;10.03;;
4317;SDS011;2172;53.576;9.934;2022-11-20T06:52:43;10.53;;;8.47;;
4317;SDS011;2172;53.576;9.934;2022-11-20T06:55:10;9.57;;;7.87;;
4317;SDS011;2172;53.576;9.934;2022-11-20T06:57:39;10.43;;;7.60;;
4317;SDS011;2172;53.576;9.934;2022-11-20T07:00:07;13.63;;;7.43;;
4317;SDS011;2172;53.576;9.934;2022-11-20T07:02:34;9.73;;;6.10;;
4317;SDS011;2172;53.576;9.934;2022-11-20T07:05:01;9.77;;;7.43;;
4317;SDS011;2172;53.576;9.934;2022-11-20T07:07:29;8.20;;;7.27;;
4317;SDS011;2172;53.576;9.934;2022-11-20T07:09:57;11.43;;;10.10;;
4317;SDS011;2172;53.576;9.934;2022-11-20T07:12:24;9.00;;;7.47;;
4317;SDS011;2172;53.576;9.934;2022-11-20T07:14:53;8.57;;;6.40;;
4317;SDS011;2172;53.576;9.934;2022-11-20T07:17:20;13.40;;;7.77;;
4317;SDS011;2172;53.576;9.934;2022-11-20T07:19:47;9.30;;;7.87;;
4317;SDS011;2172;53.576;9.934;2022-11-20T07:22:15;10.73;;;8.10;;
4317;SDS011;2172;53.576;9.934;2022-11-20T07:24:42;10.03;;;7.20;;
4317;SDS011;2172;53.576;9.934;2022-11-20T07:27:09;11.10;;;10.00;;
4317;SDS011;2172;53.576;9.934;2022-11-20T07:29:36;10.80;;;7.57;;
4317;SDS011;2172;53.576;9.934;2022-11-20T07:32:06;10.53;;;7.63;;
4317;SDS011;2172;53.576;9.934;2022-11-20T07:34:33;9.67;;;7.37;;
4317;SDS011;2172;53.576;9.934;2022-11-20T07:37:00;9.13;;;7.73;;
4317;SDS011;2172;53.576;9.934;2022-11-20T07:39:27;13.23;;;9.13;;
4317;SDS011;2172;53.576;9.934;2022-11-20T07:41:55;10.27;;;7.87;;
4317;SDS011;2172;53.576;9.934;2022-11-20T07:44:22;7.23;;;6.23;;
4317;SDS011;2172;53.576;9.934;2022-11-20T07:46:49;12.77;;;8.20;;
4317;SDS011;2172;53.576;9.934;2022-11-20T07:49:18;9.70;;;7.77;;
4317;SDS011;2172;53.576;9.934;2022-11-20T07:51:45;9.70;;;7.30;;
4317;SDS011;2172;53.576;9.934;2022-11-20T07:54:13;10.10;;;7.53;;
4317;SDS011;2172;53.576;9.934;2022-11-20T07:56:40;9.10;;;8.00;;
4317;SDS011;2172;53.576;9.934;2022-11-20T07:59:07;10.90;;;8.27;;
4317;SDS011;2172;53.576;9.934;2022-11-20T08:01:38;8.57;;;6.73;;
4317;SDS011;2172;53.576;9.934;2022-11-20T08:04:05;8.30;;;7.27;;
4317;SDS011;2172;53.576;9.934;2022-11-20T08:06:34;13.10;;;7.13;;
4317;SDS011;2172;53.576;9.934;2022-11-20T08:09:01;12.30;;;8.70;;
4317;SDS011;2172;53.576;9.934;2022-11-20T08:11:29;10.57;;;8.00;;
4317;SDS011;2172;53.576;9.934;2022-11-20T08:14:14;8.47;;;7.50;;
4317;SDS011;2172;53.576;9.934;2022-11-20T08:16:42;11.60;;;9.23;;
4317;SDS011;2172;53.576;9.934;2022-11-20T08:19:09;12.43;;;9.40;;
4317;SDS011;2172;53.576;9.934;2022-11-20T08:21:38;10.67;;;8.30;;
4317;SDS011;2172;53.576;9.934;2022-11-20T08:24:06;7.83;;;7.00;;
4317;SDS011;2172;53.576;9.934;2022-11-20T08:26:34;8.93;;;6.30;;
4317;SDS011;2172;53.576;9.934;2022-11-20T08:29:02;8.97;;;6.67;;
4317;SDS011;2172;53.576;9.934;2022-11-20T08:31:29;8.10;;;6.03;;
4317;SDS011;2172;53.576;9.934;2022-11-20T08:33:57;7.53;;;5.07;;
4317;SDS011;2172;53.576;9.934;2022-11-20T08:36:24;10.07;;;5.63;;
4317;SDS011;2172;53.576;9.934;2022-11-20T08:38:54;6.87;;;5.23;;
4317;SDS011;2172;53.576;9.934;2022-11-20T08:41:21;8.10;;;5.80;;
4317;SDS011;2172;53.576;9.934;2022-11-20T08:43:53;7.10;;;5.20;;
4317;SDS011;2172;53.576;9.934;2022-11-20T08:46:21;5.50;;;4.90;;
4317;SDS011;2172;53.576;9.934;2022-11-20T08:48:48;6.43;;;4.70;;
4317;SDS011;2172;53.576;9.934;2022-11-20T08:51:15;5.80;;;5.20;;
4317;SDS011;2172;53.576;9.934;2022-11-20T08:53:43;6.93;;;5.20;;
4317;SDS011;2172;53.576;9.934;2022-11-20T08:56:11;5.37;;;4.23;;
4317;SDS011;2172;53.576;9.934;2022-11-20T08:58:42;7.57;;;6.00;;
4317;SDS011;2172;53.576;9.934;2022-11-20T09:01:09;7.73;;;5.13;;
4317;SDS011;2172;53.576;9.934;2022-11-20T09:03:36;8.60;;;6.63;;
4317;SDS011;2172;53.576;9.934;2022-11-20T09:06:06;6.20;;;5.60;;
4317;SDS011;2172;53.576;9.934;2022-11-20T09:08:33;9.43;;;6.27;;
4317;SDS011;2172;53.576;9.934;2022-11-20T09:11:01;6.10;;;5.37;;
4317;SDS011;2172;53.576;9.934;2022-11-20T09:13:30;7.40;;;5.80;;
4317;SDS011;2172;53.576;9.934;2022-11-20T09:15:59;7.50;;;5.53;;
4317;SDS011;2172;53.576;9.934;2022-11-20T09:18:27;10.00;;;5.50;;
4317;SDS011;2172;53.576;9.934;2022-11-20T09:20:57;5.93;;;5.10;;
4317;SDS011;2172;53.576;9.934;2022-11-20T09:23:24;6.90;;;4.63;;
4317;SDS011;2172;53.576;9.934;2022-11-20T09:25:51;6.53;;;5.53;;
4317;SDS011;2172;53.576;9.934;2022-11-20T09:28:20;5.70;;;4.50;;
4317;SDS011;2172;53.576;9.934;2022-11-20T09:30:49;7.73;;;5.37;;
4317;SDS011;2172;53.576;9.934;2022-11-20T09:33:16;6.27;;;4.93;;
4317;SDS011;2172;53.576;9.934;2022-11-20T09:35:44;6.80;;;5.00;;
4317;SDS011;2172;53.576;9.934;2022-11-20T09:38:11;6.30;;;5.37;;
4317;SDS011;2172;53.576;9.934;2022-11-20T09:40:40;6.63;;;4.87;;
4317;SDS011;2172;53.576;9.934;2022-11-20T09:43:12;9.27;;;6.03;;
4317;SDS011;2172;53.576;9.934;2022-11-20T09:45:45;6.27;;;5.60;;
4317;SDS011;2172;53.576;9.934;2022-11-20T09:48:24;8.87;;;6.40;;
4317;SDS011;2172;53.576;9.934;2022-11-20T09:50:55;7.57;;;5.30;;
4317;SDS011;2172;53.576;9.934;2022-11-20T09:53:24;7.10;;;5.27;;
4317;SDS011;2172;53.576;9.934;2022-11-20T09:55:55;4.90;;;4.20;;
4317;SDS011;2172;53.576;9.934;2022-11-20T09:58:25;4.50;;;4.10;;
4317;SDS011;2172;53.576;9.934;2022-11-20T10:00:55;4.93;;;4.43;;
4317;SDS011;2172;53.576;9.934;2022-11-20T10:03:26;4.70;;;4.07;;
4317;SDS011;2172;53.576;9.934;2022-11-20T10:05:59;6.10;;;4.30;;
4317;SDS011;2172;53.576;9.934;2022-11-20T10:08:27;4.67;;;4.13;;
4317;SDS011;2172;53.576;9.934;2022-11-20T10:10:57;8.67;;;7.33;;
4317;SDS011;2172;53.576;9.934;2022-11-20T10:13:34;5.90;;;4.97;;
4317;SDS011;2172;53.576;9.934;2022-11-20T10:16:11;5.40;;;4.90;;
4317;SDS011;2172;53.576;9.934;2022-11-20T10:18:48;5.63;;;5.00;;
4317;SDS011;2172;53.576;9.934;2022-11-20T10:21:20;7.27;;;5.60;;
4317;SDS011;2172;53.576;9.934;2022-11-20T10:23:55;6.80;;;5.37;;
4317;SDS011;2172;53.576;9.934;2022-11-20T10:26:26;6.30;;;4.87;;
4317;SDS011;2172;53.576;9.934;2022-11-20T10:29:01;6.80;;;5.20;;
4317;SDS011;2172;53.576;9.934;2022-11-20T10:31:33;7.10;;;6.33;;
4317;SDS011;2172;53.576;9.934;2022-11-20T10:34:05;6.83;;;5.40;;
4317;SDS011;2172;53.576;9.934;2022-11-20T10:36:34;6.13;;;5.40;;
4317;SDS011;2172;53.576;9.934;2022-11-20T10:39:03;5.23;;;4.30;;
4317;SDS011;2172;53.576;9.934;2022-11-20T10:41:33;7.20;;;5.37;;
4317;SDS011;2172;53.576;9.934;2022-11-20T10:44:03;6.70;;;5.80;;
4317;SDS011;2172;53.576;9.934;2022-11-20T10:49:46;7.27;;;5.53;;
4317;SDS011;2172;53.576;9.934;2022-11-20T10:52:17;6.83;;;6.10;;
4317;SDS011;2172;53.576;9.934;2022-11-20T10:54:46;6.70;;;5.20;;
4317;SDS011;2172;53.576;9.934;2022-11-20T10:57:18;6.90;;;5.33;;
4317;SDS011;2172;53.576;9.934;2022-11-20T10:59:54;6.00;;;5.40;;
4317;SDS011;2172;53.576;9.934;2022-11-20T11:02:23;8.70;;;6.67;;
4317;SDS011;2172;53.576;9.934;2022-11-20T11:04:52;6.03;;;5.10;;
4317;SDS011;2172;53.576;9.934;2022-11-20T11:07:21;7.10;;;5.87;;
4317;SDS011;2172;53.576;9.934;2022-11-20T11:09:50;6.80;;;5.37;;
4317;SDS011;2172;53.576;9.934;2022-11-20T11:12:19;7.73;;;5.20;;
4317;SDS011;2172;53.576;9.934;2022-11-20T11:14:47;7.83;;;5.53;;
4317;SDS011;2172;53.576;9.934;2022-11-20T11:17:22;7.53;;;6.47;;
4317;SDS011;2172;53.576;9.934;2022-11-20T11:20:03;8.13;;;5.90;;
4317;SDS011;2172;53.576;9.934;2022-11-20T11:22:33;7.97;;;6.37;;
4317;SDS011;2172;53.576;9.934;2022-11-20T11:25:00;10.57;;;8.00;;
4317;SDS011;2172;53.576;9.934;2022-11-20T11:27:28;9.50;;;6.60;;
4317;SDS011;2172;53.576;9.934;2022-11-20T11:30:02;6.50;;;5.70;;
4317;SDS011;2172;53.576;9.934;2022-11-20T11:32:30;7.17;;;6.03;;
4317;SDS011;2172;53.576;9.934;2022-11-20T11:35:01;8.03;;;5.77;;
4317;SDS011;2172;53.576;9.934;2022-11-20T11:37:32;8.80;;;6.30;;
4317;SDS011;2172;53.576;9.934;2022-11-20T11:40:00;8.73;;;6.27;;
4317;SDS011;2172;53.576;9.934;2022-11-20T11:42:27;5.97;;;5.37;;
4317;SDS011;2172;53.576;9.934;2022-11-20T11:44:56;11.87;;;7.37;;
4317;SDS011;2172;53.576;9.934;2022-11-20T11:47:32;7.73;;;6.00;;
4317;SDS011;2172;53.576;9.934;2022-11-20T11:50:00;7.27;;;6.30;;
4317;SDS011;2172;53.576;9.934;2022-11-20T11:52:28;8.17;;;6.13;;
4317;SDS011;2172;53.576;9.934;2022-11-20T11:54:58;8.93;;;6.97;;
4317;SDS011;2172;53.576;9.934;2022-11-20T11:57:26;4.63;;;4.03;;
4317;SDS011;2172;53.576;9.934;2022-11-20T11:59:59;8.73;;;6.70;;
4317;SDS011;2172;53.576;9.934;2022-11-20T12:02:32;3.30;;;3.00;;
4317;SDS011;2172;53.576;9.934;2022-11-20T12:05:04;3.93;;;3.63;;
4317;SDS011;2172;53.576;9.934;2022-11-20T12:07:38;3.70;;;3.30;;
4317;SDS011;2172;53.576;9.934;2022-11-20T12:10:12;6.03;;;4.30;;
4317;SDS011;2172;53.576;9.934;2022-11-20T12:12:42;4.20;;;3.80;;
4317;SDS011;2172;53.576;9.934;2022-11-20T12:15:11;11.40;;;7.60;;
4317;SDS011;2172;53.576;9.934;2022-11-20T12:17:39;4.50;;;4.00;;
4317;SDS011;2172;53.576;9.934;2022-11-20T12:20:10;5.27;;;3.57;;
4317;SDS011;2172;53.576;9.934;2022-11-20T12:22:41;4.60;;;4.10;;
4317;SDS011;2172;53.576;9.934;2022-11-20T12:25:14;4.40;;;3.90;;
4317;SDS011;2172;53.576;9.934;2022-11-20T12:27:54;6.07;;;4.50;;
4317;SDS011;2172;53.576;9.934;2022-11-20T12:30:25;4.53;;;4.13;;
4317;SDS011;2172;53.576;9.934;2022-11-20T12:33:08;5.40;;;4.53;;
4317;SDS011;2172;53.576;9.934;2022-11-20T12:35:42;4.90;;;4.43;;
4317;SDS011;2172;53.576;9.934;2022-11-20T12:38:22;5.97;;;4.00;;
4317;SDS011;2172;53.576;9.934;2022-11-20T12:40:56;6.10;;;4.60;;
4317;SDS011;2172;53.576;9.934;2022-11-20T12:43:26;5.50;;;4.67;;
4317;SDS011;2172;53.576;9.934;2022-11-20T12:46:18;4.93;;;4.43;;
4317;SDS011;2172;53.576;9.934;2022-11-20T12:49:03;3.77;;;3.47;;
4317;SDS011;2172;53.576;9.934;2022-11-20T12:51:45;6.80;;;4.20;;
4317;SDS011;2172;53.576;9.934;2022-11-20T12:54:28;10.50;;;7.50;;
4317;SDS011;2172;53.576;9.934;2022-11-20T12:57:01;5.30;;;4.23;;
4317;SDS011;2172;53.576;9.934;2022-11-20T12:59:33;6.40;;;4.40;;
4317;SDS011;2172;53.576;9.934;2022-11-20T13:02:09;4.33;;;3.93;;
4317;SDS011;2172;53.576;9.934;2022-11-20T13:04:43;5.23;;;2.77;;
4317;SDS011;2172;53.576;9.934;2022-11-20T13:07:14;3.20;;;2.90;;
4317;SDS011;2172;53.576;9.934;2022-11-20T13:09:43;3.60;;;3.10;;
4317;SDS011;2172;53.576;9.934;2022-11-20T13:12:13;4.47;;;4.07;;
4317;SDS011;2172;53.576;9.934;2022-11-20T13:14:44;2.90;;;2.53;;
4317;SDS011;2172;53.576;9.934;2022-11-20T13:17:14;3.87;;;2.90;;
4317;SDS011;2172;53.576;9.934;2022-11-20T13:19:45;3.00;;;2.50;;
4317;SDS011;2172;53.576;9.934;2022-11-20T13:22:23;3.10;;;2.80;;
4317;SDS011;2172;53.576;9.934;2022-11-20T13:24:50;3.37;;;2.70;;
4317;SDS011;2172;53.576;9.934;2022-11-20T13:27:20;3.33;;;3.00;;
4317;SDS011;2172;53.576;9.934;2022-11-20T13:30:02;3.50;;;3.10;;
4317;SDS011;2172;53.576;9.934;2022-11-20T13:32:47;3.67;;;3.37;;
4317;SDS011;2172;53.576;9.934;2022-11-20T13:35:23;3.00;;;2.70;;
4317;SDS011;2172;53.576;9.934;2022-11-20T13:37:58;3.57;;;3.27;;
4317;SDS011;2172;53.576;9.934;2022-11-20T13:40:26;3.27;;;2.97;;
4317;SDS011;2172;53.576;9.934;2022-11-20T13:43:04;3.47;;;3.17;;
4317;SDS011;2172;53.576;9.934;2022-11-20T13:45:34;3.40;;;3.20;;
4317;SDS011;2172;53.576;9.934;2022-11-20T13:48:02;6.17;;;5.60;;
4317;SDS011;2172;53.576;9.934;2022-11-20T13:50:38;5.03;;;4.63;;
4317;SDS011;2172;53.576;9.934;2022-11-20T13:53:09;5.90;;;5.30;;
4317;SDS011;2172;53.576;9.934;2022-11-20T13:55:42;4.70;;;3.97;;
4317;SDS011;2172;53.576;9.934;2022-11-20T13:58:22;5.10;;;4.60;;
4317;SDS011;2172;53.576;9.934;2022-11-20T14:00:55;6.47;;;4.57;;
4317;SDS011;2172;53.576;9.934;2022-11-20T14:03:24;5.87;;;4.70;;
4317;SDS011;2172;53.576;9.934;2022-11-20T14:05:52;5.73;;;3.80;;
4317;SDS011;2172;53.576;9.934;2022-11-20T14:08:27;4.20;;;3.80;;
4317;SDS011;2172;53.576;9.934;2022-11-20T14:11:05;6.03;;;5.33;;
4317;SDS011;2172;53.576;9.934;2022-11-20T14:13:34;4.97;;;4.47;;
4317;SDS011;2172;53.576;9.934;2022-11-20T14:16:01;5.73;;;5.20;;
4317;SDS011;2172;53.576;9.934;2022-11-20T14:18:28;4.10;;;3.40;;
4317;SDS011;2172;53.576;9.934;2022-11-20T14:20:55;4.27;;;3.57;;
4317;SDS011;2172;53.576;9.934;2022-11-20T14:23:27;4.43;;;3.80;;
4317;SDS011;2172;53.576;9.934;2022-11-20T14:25:55;5.40;;;4.90;;
4317;SDS011;2172;53.576;9.934;2022-11-20T14:28:24;6.33;;;5.70;;
4317;SDS011;2172;53.576;9.934;2022-11-20T14:30:54;5.63;;;4.27;;
4317;SDS011;2172;53.576;9.934;2022-11-20T14:33:21;5.07;;;3.80;;
4317;SDS011;2172;53.576;9.934;2022-11-20T14:35:51;5.40;;;4.60;;
4317;SDS011;2172;53.576;9.934;2022-11-20T14:38:20;9.10;;;5.20;;
4317;SDS011;2172;53.576;9.934;2022-11-20T14:40:48;5.47;;;4.97;;
4317;SDS011;2172;53.576;9.934;2022-11-20T14:43:17;3.53;;;3.23;;
4317;SDS011;2172;53.576;9.934;2022-11-20T14:45:44;4.30;;;3.90;;
4317;SDS011;2172;53.576;9.934;2022-11-20T14:48:14;4.70;;;3.80;;
4317;SDS011;2172;53.576;9.934;2022-11-20T14:50:42;5.57;;;4.07;;
4317;SDS011;2172;53.576;9.934;2022-11-20T14:53:09;5.50;;;4.10;;
4317;SDS011;2172;53.576;9.934;2022-11-20T14:55:37;6.00;;;5.27;;
4317;SDS011;2172;53.576;9.934;2022-11-20T14:58:06;5.13;;;4.17;;
4317;SDS011;2172;53.576;9.934;2022-11-20T15:00:34;7.93;;;4.50;;
4317;SDS011;2172;53.576;9.934;2022-11-20T15:03:02;8.77;;;4.30;;
4317;SDS011;2172;53.576;9.934;2022-11-20T15:08:13;6.93;;;5.27;;
4317;SDS011;2172;53.576;9.934;2022-11-20T15:10:45;4.80;;;4.13;;
4317;SDS011;2172;53.576;9.934;2022-11-20T15:13:13;8.07;;;4.27;;
4317;SDS011;2172;53.576;9.934;2022-11-20T15:15:42;5.17;;;4.67;;
4317;SDS011;2172;53.576;9.934;2022-11-20T15:18:11;6.10;;;4.77;;
4317;SDS011;2172;53.576;9.934;2022-11-20T15:20:40;9.70;;;6.07;;
4317;SDS011;2172;53.576;9.934;2022-11-20T15:23:09;10.13;;;8.10;;
4317;SDS011;2172;53.576;9.934;2022-11-20T15:25:38;11.00;;;9.57;;
4317;SDS011;2172;53.576;9.934;2022-11-20T15:28:09;12.60;;;8.50;;
4317;SDS011;2172;53.576;9.934;2022-11-20T15:30:37;8.60;;;7.40;;
4317;SDS011;2172;53.576;9.934;2022-11-20T15:33:04;6.60;;;6.00;;